Time;durP1;ratioP1;P1;durP2;ratioP2;P2;SDS_P1;SDS_P2;PMS_P1;PMS_P2;Temp;Humidity;BMP_temperature;BMP_pressure;BME280_temperature;BME280_humidity;BME280_pressure;Samples;Min_cycle;Max_cycle;Signal;HPM_P1;HPM_P2
2023/05/17 00:00:53;;;;;;;19.55;4.00;;;;;;;7.53;100.00;101653.00;4918059;29;20298;-47
2023/05/17 00:03:19;;;;;;;20.05;3.90;;;;;;;7.46;100.00;101653.13;4926678;29;20198;-52
2023/05/17 00:05:45;;;;;;;19.42;4.03;;;;;;;7.37;100.00;101649.66;4925784;29;20263;-48
2023/05/17 00:08:11;;;;;;;17.35;3.72;;;;;;;7.38;100.00;101658.53;4926306;29;20184;-46
2023/05/17 00:10:36;;;;;;;17.88;3.42;;;;;;;7.33;100.00;101653.25;4925277;29;20260;-48
2023/05/17 00:13:02;;;;;;;21.50;3.90;;;;;;;7.45;100.00;101648.66;4917905;29;20689;-48
2023/05/17 00:15:28;;;;;;;19.92;4.03;;;;;;;7.41;100.00;101643.38;4920832;29;20184;-51
2023/05/17 00:17:54;;;;;;;16.80;3.28;;;;;;;7.41;100.00;101655.81;4918807;29;20191;-50
2023/05/17 00:20:20;;;;;;;19.33;3.20;;;;;;;7.35;100.00;101662.13;4920091;29;20269;-50
2023/05/17 00:22:46;;;;;;;15.15;3.05;;;;;;;7.40;100.00;101654.06;4920556;29;20282;-54
2023/05/17 00:25:12;;;;;;;18.48;3.13;;;;;;;7.39;100.00;101669.19;4923340;29;20656;-49
2023/05/17 00:27:37;;;;;;;19.00;3.45;;;;;;;7.38;100.00;101670.06;4925141;29;20610;-48
2023/05/17 00:30:03;;;;;;;16.27;3.10;;;;;;;7.45;100.00;101667.34;4926211;29;20514;-49
2023/05/17 00:32:29;;;;;;;18.33;3.30;;;;;;;7.31;100.00;101668.38;4926208;29;20596;-51
2023/05/17 00:34:55;;;;;;;15.70;4.10;;;;;;;7.35;100.00;101659.44;4905385;29;20238;-49
2023/05/17 00:37:21;;;;;;;19.65;3.08;;;;;;;7.21;100.00;101678.28;4903510;29;20188;-49
2023/05/17 00:39:47;;;;;;;19.35;3.95;;;;;;;7.15;100.00;101662.34;4928173;29;20725;-47
2023/05/17 00:42:13;;;;;;;15.20;2.67;;;;;;;7.10;100.00;101663.28;4915464;29;20188;-54
2023/05/17 00:44:39;;;;;;;10.05;2.53;;;;;;;7.15;100.00;101673.00;4921955;29;20212;-52
2023/05/17 00:47:04;;;;;;;16.08;2.97;;;;;;;7.03;99.71;101667.78;4921488;29;20186;-48
2023/05/17 00:49:30;;;;;;;13.93;2.05;;;;;;;6.93;99.22;101668.75;4927884;29;20182;-47
2023/05/17 00:51:55;;;;;;;16.17;2.30;;;;;;;6.96;98.47;101660.75;4923523;29;20188;-51
2023/05/17 00:54:21;;;;;;;13.82;3.08;;;;;;;6.92;97.33;101667.88;4930153;29;20291;-52
2023/05/17 00:56:48;;;;;;;13.52;2.30;;;;;;;6.91;96.73;101670.56;4918074;29;20267;-55
2023/05/17 00:59:14;;;;;;;14.45;2.85;;;;;;;6.85;95.76;101676.84;4908108;29;20199;-48
2023/05/17 01:01:42;;;;;;;14.07;2.72;;;;;;;6.82;95.89;101682.19;4921369;29;20180;-49
2023/05/17 01:04:08;;;;;;;14.07;2.42;;;;;;;6.74;95.08;101682.25;4917662;29;20243;-53
2023/05/17 01:06:35;;;;;;;12.55;2.17;;;;;;;6.84;93.97;101679.50;4923839;29;20214;-49
2023/05/17 01:09:01;;;;;;;10.65;2.05;;;;;;;6.86;93.28;101691.91;4919712;29;20180;-51
2023/05/17 01:11:45;;;;;;;18.60;3.50;;;;;;;6.78;92.33;101677.81;4933356;29;20534;-47
2023/05/17 01:15:05;;;;;;;12.93;2.30;;;;;;;6.84;91.96;101690.16;4926713;29;20202;-47
2023/05/17 01:17:49;;;;;;;12.73;2.42;;;;;;;6.86;91.36;101691.03;4886171;29;20211;-46
2023/05/17 01:20:30;;;;;;;8.75;2.28;;;;;;;6.79;90.76;101682.22;4918709;29;20199;-45
2023/05/17 01:23:33;;;;;;;12.45;2.17;;;;;;;6.68;91.08;101700.06;4889267;29;20302;-47
2023/05/17 01:26:32;;;;;;;13.20;2.38;;;;;;;6.67;90.61;101704.53;4923791;29;20207;-47
2023/05/17 01:28:59;;;;;;;15.32;2.45;;;;;;;6.69;90.90;101700.06;4926532;29;20342;-45
2023/05/17 01:31:25;;;;;;;19.40;2.35;;;;;;;6.64;91.08;101704.53;4921324;29;20195;-46
2023/05/17 01:33:51;;;;;;;12.68;2.50;;;;;;;6.72;90.94;101704.47;4920199;29;20207;-46
2023/05/17 01:36:16;;;;;;;13.95;2.67;;;;;;;6.75;91.53;101715.09;4901995;29;20667;-45
2023/05/17 01:38:41;;;;;;;10.75;2.40;;;;;;;6.74;91.03;101721.34;4918178;29;20190;-45
2023/05/17 01:41:31;;;;;;;16.60;3.17;;;;;;;6.65;90.25;101724.03;4919003;29;20687;-46
2023/05/17 01:44:25;;;;;;;10.18;2.13;;;;;;;6.55;90.82;101723.25;4934959;29;20218;-48
2023/05/17 01:46:59;;;;;;;14.35;2.60;;;;;;;6.52;91.07;101734.81;4912225;29;20203;-45
2023/05/17 01:49:36;;;;;;;12.18;3.05;;;;;;;6.50;91.05;101747.25;4902051;29;20187;-44
2023/05/17 01:52:12;;;;;;;13.30;2.85;;;;;;;6.45;90.98;101749.06;4927001;29;20283;-46
2023/05/17 01:54:53;;;;;;;13.30;2.90;;;;;;;6.52;90.14;101748.13;4918764;29;20232;-46
2023/05/17 01:57:21;;;;;;;15.68;3.55;;;;;;;6.51;90.03;101749.00;4905553;29;20191;-47
2023/05/17 01:59:48;;;;;;;14.93;2.70;;;;;;;6.51;89.23;101746.34;4924836;29;20187;-49
2023/05/17 02:02:14;;;;;;;24.02;4.00;;;;;;;6.40;88.92;101753.50;4919746;29;20223;-46
2023/05/17 02:04:40;;;;;;;14.60;2.92;;;;;;;6.35;89.11;101740.22;4900992;29;20255;-47
2023/05/17 02:07:05;;;;;;;18.50;3.80;;;;;;;6.38;88.30;101750.88;4920679;29;20220;-47
2023/05/17 02:09:31;;;;;;;26.30;3.40;;;;;;;6.36;88.20;101754.41;4937778;29;20202;-46
2023/05/17 02:11:56;;;;;;;21.17;3.15;;;;;;;6.39;88.22;101746.44;4925412;29;20201;-44
2023/05/17 02:14:22;;;;;;;22.63;3.78;;;;;;;6.28;87.76;101746.50;4934251;29;20577;-44
2023/05/17 02:16:47;;;;;;;17.67;3.88;;;;;;;6.34;87.43;101746.47;4921874;29;20195;-47
2023/05/17 02:19:13;;;;;;;23.08;4.13;;;;;;;6.29;87.39;101740.25;4901307;29;20251;-46
2023/05/17 02:21:39;;;;;;;20.35;3.42;;;;;;;6.19;86.98;101755.41;4917286;29;20268;-48
2023/05/17 02:24:05;;;;;;;19.83;3.70;;;;;;;6.26;87.01;101758.03;4935854;29;20698;-47
2023/05/17 02:26:31;;;;;;;20.55;3.50;;;;;;;6.17;86.49;101756.31;4915455;29;20722;-46
2023/05/17 02:28:57;;;;;;;21.83;3.88;;;;;;;6.14;86.97;101754.56;4930750;29;20195;-46
2023/05/17 02:31:26;;;;;;;13.30;3.28;;;;;;;6.18;86.87;101772.25;4937887;29;20267;-45
2023/05/17 02:33:54;;;;;;;18.20;3.58;;;;;;;6.25;86.51;101761.59;4954263;28;20207;-47
2023/05/17 02:36:21;;;;;;;23.08;4.25;;;;;;;6.10;86.58;101758.13;4939426;29;20188;-47
2023/05/17 02:38:47;;;;;;;21.00;3.60;;;;;;;6.17;86.98;101758.97;4929764;29;20560;-45
2023/05/17 02:41:12;;;;;;;19.73;3.72;;;;;;;6.16;86.91;101759.84;4925586;29;20327;-46
2023/05/17 02:43:38;;;;;;;19.67;4.10;;;;;;;6.08;86.81;101765.22;4928775;29;20199;-47
2023/05/17 02:46:04;;;;;;;20.67;3.55;;;;;;;6.13;86.78;101760.75;4956024;28;20211;-45
2023/05/17 02:48:29;;;;;;;20.95;3.63;;;;;;;6.17;86.81;101781.13;4928843;29;20195;-45
2023/05/17 02:50:55;;;;;;;20.08;3.83;;;;;;;6.10;87.07;101778.50;4927540;29;20855;-46
2023/05/17 02:53:20;;;;;;;14.70;3.40;;;;;;;6.11;87.21;101773.19;4954154;28;20215;-47
2023/05/17 02:55:46;;;;;;;20.67;3.47;;;;;;;6.18;87.04;101782.91;4956572;28;20199;-44
2023/05/17 02:58:12;;;;;;;20.27;3.72;;;;;;;6.16;87.00;101781.13;4954203;28;20691;-46
2023/05/17 03:00:38;;;;;;;16.73;3.50;;;;;;;6.18;87.51;101793.53;4959453;28;20184;-46
2023/05/17 03:03:03;;;;;;;26.15;4.05;;;;;;;6.23;87.54;101780.25;4937089;29;20304;-47
2023/05/17 03:05:32;;;;;;;12.85;3.08;;;;;;;6.14;87.27;101786.50;4951262;28;20247;-46
2023/05/17 03:07:57;;;;;;;14.60;3.25;;;;;;;6.08;87.41;101785.59;4951156;28;20193;-47
2023/05/17 03:10:23;;;;;;;18.42;3.85;;;;;;;6.10;87.45;101792.72;4923656;29;20664;-46
2023/05/17 03:12:48;;;;;;;19.15;3.72;;;;;;;6.10;87.08;101789.13;4955265;28;20637;-47
2023/05/17 03:15:17;;;;;;;26.02;3.60;;;;;;;6.14;86.73;101786.50;4938604;29;20188;-45
2023/05/17 03:17:43;;;;;;;15.90;3.22;;;;;;;6.14;86.13;101777.59;4906952;29;20223;-47
2023/05/17 03:20:09;;;;;;;15.13;2.60;;;;;;;6.26;85.81;101779.34;4938823;29;20202;-47
2023/05/17 03:22:35;;;;;;;12.20;2.83;;;;;;;6.23;84.79;101784.66;4953215;28;20216;-48
2023/05/17 03:25:02;;;;;;;15.10;3.33;;;;;;;6.23;83.62;101779.31;4940220;29;20411;-45
2023/05/17 03:27:29;;;;;;;14.20;2.40;;;;;;;6.22;82.72;101783.78;4953679;28;20199;-48
2023/05/17 03:29:55;;;;;;;13.15;2.95;;;;;;;6.29;82.15;101789.94;4957129;28;20271;-49
2023/05/17 03:32:23;;;;;;;16.80;3.30;;;;;;;6.30;81.20;101773.97;4953223;28;20188;-46
2023/05/17 03:34:48;;;;;;;19.88;3.10;;;;;;;6.28;80.88;101777.56;4952466;28;20264;-46
2023/05/17 03:37:14;;;;;;;10.90;2.60;;;;;;;6.25;80.63;101789.06;4936512;29;20188;-47
2023/05/17 03:39:40;;;;;;;14.85;3.00;;;;;;;6.36;80.45;101778.38;4952145;28;20356;-49
2023/05/17 03:42:05;;;;;;;10.48;2.20;;;;;;;6.36;80.02;101794.34;4924878;29;20279;-48
2023/05/17 03:44:32;;;;;;;12.07;2.58;;;;;;;6.38;80.26;101790.81;4953061;28;20207;-46
2023/05/17 03:46:58;;;;;;;11.30;2.40;;;;;;;6.33;79.65;101789.03;4923782;29;20188;-46
2023/05/17 03:49:23;;;;;;;16.45;2.38;;;;;;;6.28;79.31;101791.72;4936934;29;20576;-46
2023/05/17 03:51:50;;;;;;;10.63;2.70;;;;;;;6.28;79.10;101794.41;4956208;28;20264;-45
2023/05/17 03:54:16;;;;;;;13.98;2.50;;;;;;;6.33;79.21;101797.91;4922810;29;20291;-46
2023/05/17 03:56:45;;;;;;;10.82;2.70;;;;;;;6.37;79.24;101802.31;4922126;29;20277;-47
2023/05/17 03:59:12;;;;;;;13.00;2.50;;;;;;;6.37;78.94;101796.13;4938315;29;20255;-48
2023/05/17 04:01:39;;;;;;;11.40;2.75;;;;;;;6.49;78.52;101795.16;4922489;29;20215;-46
2023/05/17 04:04:05;;;;;;;13.70;2.50;;;;;;;6.44;78.36;101794.31;4924339;29;20206;-48
2023/05/17 04:06:31;;;;;;;12.43;2.72;;;;;;;6.46;78.24;101800.50;4954476;28;20220;-46
2023/05/17 04:08:58;;;;;;;15.85;2.83;;;;;;;6.45;78.63;101815.63;4919840;29;20238;-45
2023/05/17 04:11:26;;;;;;;12.27;2.20;;;;;;;6.56;79.08;101812.88;4937217;29;20747;-46
2023/05/17 04:13:53;;;;;;;13.30;2.58;;;;;;;6.57;79.16;101820.84;4953626;28;20337;-46
2023/05/17 04:16:18;;;;;;;10.25;2.10;;;;;;;6.51;78.57;101823.53;4937956;29;20187;-46
2023/05/17 04:18:44;;;;;;;10.80;2.25;;;;;;;6.55;78.88;101825.28;4921956;29;20678;-48
2023/05/17 04:21:10;;;;;;;14.10;2.50;;;;;;;6.53;78.69;101824.41;4949884;28;20191;-47
2023/05/17 04:23:38;;;;;;;11.52;2.00;;;;;;;6.50;77.97;101819.13;4941707;29;20273;-45
2023/05/17 04:26:04;;;;;;;11.95;2.47;;;;;;;6.60;77.66;101820.84;4936497;29;20211;-50
2023/05/17 04:28:33;;;;;;;10.63;2.17;;;;;;;6.57;77.26;101815.53;4954041;28;20195;-47
2023/05/17 04:31:00;;;;;;;7.68;2.15;;;;;;;6.63;77.38;101824.38;4924050;29;20207;-44
2023/05/17 04:33:27;;;;;;;16.23;2.60;;;;;;;6.75;77.33;101819.84;4937157;29;20223;-45
2023/05/17 04:35:56;;;;;;;13.55;2.55;;;;;;;6.70;76.61;101829.66;4941214;29;20187;-46
2023/05/17 04:38:22;;;;;;;9.95;2.20;;;;;;;6.72;76.89;101829.66;4957701;28;20179;-45
2023/05/17 04:40:49;;;;;;;17.20;2.55;;;;;;;6.75;76.78;101832.28;4924388;29;20671;-48
2023/05/17 04:43:15;;;;;;;12.05;2.03;;;;;;;6.70;76.36;101840.31;4922561;29;20212;-46
2023/05/17 04:45:41;;;;;;;11.40;2.33;;;;;;;6.72;76.84;101838.53;4924347;29;20207;-46
2023/05/17 04:48:08;;;;;;;9.85;2.63;;;;;;;6.76;76.54;101844.72;4941371;28;20521;-44
2023/05/17 04:50:34;;;;;;;7.55;1.83;;;;;;;6.78;76.59;101842.94;4923229;29;20191;-47
2023/05/17 04:53:00;;;;;;;11.93;2.15;;;;;;;6.87;76.40;101857.97;4915982;29;20267;-47
2023/05/17 04:55:29;;;;;;;14.60;2.67;;;;;;;6.71;76.00;101849.16;4915548;29;20308;-46
2023/05/17 04:57:56;;;;;;;10.80;2.28;;;;;;;6.84;76.00;101858.84;4921052;29;20184;-46
2023/05/17 05:00:25;;;;;;;16.75;3.22;;;;;;;6.80;75.91;101843.81;4926037;29;20187;-47
2023/05/17 05:02:58;;;;;;;10.00;2.53;;;;;;;6.94;75.55;101855.25;4926879;29;20620;-46
2023/05/17 05:05:24;;;;;;;13.32;2.45;;;;;;;6.89;75.96;101864.19;4954744;28;20285;-46
2023/05/17 05:07:50;;;;;;;13.10;2.58;;;;;;;6.90;76.01;101866.81;4949089;28;20291;-47
2023/05/17 05:10:16;;;;;;;11.60;2.63;;;;;;;6.86;75.63;101866.84;4931495;29;20187;-47
2023/05/17 05:12:43;;;;;;;11.40;2.65;;;;;;;6.87;74.73;101866.84;4934501;29;20195;-47
2023/05/17 05:15:10;;;;;;;8.93;2.50;;;;;;;6.99;74.62;101858.75;4922065;29;20599;-45
2023/05/17 05:17:38;;;;;;;15.60;2.80;;;;;;;7.06;74.90;101866.72;4936714;29;20197;-44
2023/05/17 05:20:04;;;;;;;11.52;2.60;;;;;;;6.98;74.45;101867.66;4937272;29;20203;-44
2023/05/17 05:22:30;;;;;;;11.02;2.78;;;;;;;7.09;74.23;101874.69;4919058;29;20208;-44
2023/05/17 05:24:55;;;;;;;12.40;2.60;;;;;;;7.14;74.05;101872.88;4951199;28;20254;-44
2023/05/17 05:27:21;;;;;;;12.32;2.53;;;;;;;7.18;73.42;101863.97;4931437;29;20194;-45
2023/05/17 05:29:47;;;;;;;13.20;2.25;;;;;;;7.13;72.55;101860.47;4950190;28;20184;-44
2023/05/17 05:32:14;;;;;;;16.42;3.00;;;;;;;7.13;72.58;101865.78;4936155;29;20195;-47
2023/05/17 05:34:43;;;;;;;16.92;2.63;;;;;;;7.13;72.19;101877.34;4935667;29;20223;-43
2023/05/17 05:37:09;;;;;;;14.27;3.72;;;;;;;7.25;71.93;101867.47;4920772;29;20191;-46
2023/05/17 05:39:35;;;;;;;17.92;2.97;;;;;;;7.34;72.78;101886.94;4919625;29;20184;-47
2023/05/17 05:42:02;;;;;;;15.38;2.70;;;;;;;7.37;72.38;101878.94;4933578;29;20205;-45
2023/05/17 05:44:29;;;;;;;14.82;2.53;;;;;;;7.39;72.25;101892.22;4906487;29;20199;-46
2023/05/17 05:46:55;;;;;;;15.45;3.42;;;;;;;7.27;71.63;101898.53;4924684;29;20564;-47
2023/05/17 05:49:21;;;;;;;12.20;3.00;;;;;;;7.34;71.32;101883.38;4935815;29;20191;-45
2023/05/17 05:51:47;;;;;;;16.23;3.00;;;;;;;7.47;71.01;101894.84;4937112;29;20187;-46
2023/05/17 05:54:12;;;;;;;13.32;2.88;;;;;;;7.51;70.56;101885.91;4936545;29;20208;-47
2023/05/17 05:56:38;;;;;;;10.48;2.60;;;;;;;7.49;70.49;101885.94;4919511;29;20187;-47
2023/05/17 05:59:06;;;;;;;14.80;3.08;;;;;;;7.50;70.14;101895.72;4939196;29;20550;-46
2023/05/17 06:01:32;;;;;;;14.25;3.05;;;;;;;7.44;70.24;101890.44;4942238;29;20544;-46
2023/05/17 06:03:58;;;;;;;8.27;2.65;;;;;;;7.77;70.86;101905.25;4923072;29;20275;-46
2023/05/17 06:06:24;;;;;;;14.07;2.90;;;;;;;7.66;70.35;101901.78;4922737;29;20759;-46
2023/05/17 06:08:49;;;;;;;11.35;3.05;;;;;;;7.72;70.48;101919.50;4923641;29;20266;-45
2023/05/17 06:11:17;;;;;;;17.75;2.92;;;;;;;7.81;70.23;101928.31;4927260;29;20219;-47
2023/05/17 06:13:42;;;;;;;18.27;3.22;;;;;;;7.90;70.03;101919.34;4924267;29;20271;-48
2023/05/17 06:16:08;;;;;;;10.57;2.78;;;;;;;8.24;69.71;101922.56;4927625;29;20597;-46
2023/05/17 06:18:33;;;;;;;13.85;2.90;;;;;;;8.28;69.62;101923.41;4926043;29;20223;-46
2023/05/17 06:20:59;;;;;;;15.20;3.20;;;;;;;8.21;69.39;101925.25;4928535;29;20183;-48
2023/05/17 06:23:25;;;;;;;16.63;2.72;;;;;;;8.40;69.64;101930.41;4922927;29;20678;-47
2023/05/17 06:25:51;;;;;;;11.88;3.08;;;;;;;8.18;69.31;101930.63;4917477;29;20250;-46
2023/05/17 06:28:17;;;;;;;14.27;2.70;;;;;;;8.19;69.78;101942.19;4922073;29;20198;-47
2023/05/17 06:30:42;;;;;;;16.83;3.08;;;;;;;8.07;70.29;101953.88;4923379;29;20203;-46
2023/05/17 06:33:08;;;;;;;12.02;2.88;;;;;;;8.05;70.22;101953.03;4919054;29;20294;-46
2023/05/17 06:35:35;;;;;;;21.27;3.08;;;;;;;7.99;70.22;101964.63;4923987;29;20196;-46
2023/05/17 06:38:00;;;;;;;11.90;2.35;;;;;;;7.99;69.75;101969.09;4908455;29;20188;-45
2023/05/17 06:40:26;;;;;;;19.05;3.72;;;;;;;7.94;69.53;101960.25;4923660;29;20254;-47
2023/05/17 06:42:52;;;;;;;16.00;4.22;;;;;;;7.88;69.43;101957.63;4920706;29;20223;-45
2023/05/17 06:45:17;;;;;;;14.07;3.10;;;;;;;7.83;69.61;101971.88;4929657;29;20290;-45
2023/05/17 06:47:43;;;;;;;16.38;3.55;;;;;;;7.94;69.68;101981.59;4940176;29;20188;-46
2023/05/17 06:50:09;;;;;;;14.65;3.50;;;;;;;8.04;69.26;101967.25;4926766;29;20192;-46
2023/05/17 06:52:35;;;;;;;16.45;3.25;;;;;;;7.98;69.15;101961.97;4928133;29;20555;-44
2023/05/17 06:55:01;;;;;;;14.80;2.80;;;;;;;8.14;69.55;101974.28;4923607;29;20456;-46
2023/05/17 06:57:26;;;;;;;11.43;3.08;;;;;;;8.14;69.39;101971.59;4920311;29;20184;-47
2023/05/17 06:59:52;;;;;;;11.45;2.53;;;;;;;8.16;68.91;101971.59;4923730;29;20631;-46
2023/05/17 07:02:18;;;;;;;13.07;2.53;;;;;;;8.19;67.77;101961.75;4924908;29;20191;-45
2023/05/17 07:04:44;;;;;;;14.52;2.88;;;;;;;8.10;67.05;101961.84;4923228;29;20582;-44
2023/05/17 07:07:10;;;;;;;11.77;2.13;;;;;;;8.28;67.26;101960.78;4921583;29;20180;-44
2023/05/17 07:09:36;;;;;;;9.55;2.70;;;;;;;8.36;67.05;101964.25;4926076;29;20187;-47
2023/05/17 07:12:03;;;;;;;13.15;2.00;;;;;;;8.37;66.85;101975.81;4926226;29;20184;-45
2023/05/17 07:14:29;;;;;;;11.73;2.85;;;;;;;8.31;66.59;101982.13;4926168;29;20299;-46
2023/05/17 07:16:54;;;;;;;13.13;2.60;;;;;;;8.50;66.53;101985.50;4924483;29;20274;-46
2023/05/17 07:19:20;;;;;;;15.45;2.70;;;;;;;8.68;66.42;101967.50;4926650;29;20219;-47
2023/05/17 07:21:45;;;;;;;12.13;2.20;;;;;;;8.65;66.48;101971.97;4927331;29;20192;-46
2023/05/17 07:24:11;;;;;;;7.72;2.60;;;;;;;9.04;66.38;101968.81;4938106;29;20263;-46
2023/05/17 07:26:36;;;;;;;11.48;2.95;;;;;;;9.23;66.31;101982.81;4920922;29;20204;-44
2023/05/17 07:29:02;;;;;;;9.27;2.45;;;;;;;8.68;66.01;101987.09;4922611;29;20187;-45
2023/05/17 07:31:27;;;;;;;9.02;2.47;;;;;;;9.00;66.62;101985.78;4922474;29;20586;-45
2023/05/17 07:33:53;;;;;;;8.77;2.80;;;;;;;8.99;66.65;101992.94;4924009;29;20211;-50
2023/05/17 07:36:18;;;;;;;11.55;2.25;;;;;;;8.68;65.73;101972.81;4923988;29;20181;-52
2023/05/17 07:38:44;;;;;;;6.28;1.77;;;;;;;8.80;65.52;101980.72;4921181;29;20184;-50
2023/05/17 07:41:12;;;;;;;15.25;2.40;;;;;;;8.70;65.26;101985.25;4923823;29;20195;-47
2023/05/17 07:43:38;;;;;;;8.30;2.13;;;;;;;8.86;65.36;101983.31;4923500;29;20212;-48
2023/05/17 07:46:03;;;;;;;8.93;1.88;;;;;;;9.00;64.60;101984.00;4925266;29;20262;-50
2023/05/17 07:48:29;;;;;;;6.90;2.00;;;;;;;9.22;65.22;101981.03;4938334;29;20197;-52
2023/05/17 07:50:55;;;;;;;8.32;1.88;;;;;;;9.33;65.25;102004.97;4921525;29;20184;-51
2023/05/17 07:53:20;;;;;;;12.38;1.90;;;;;;;9.62;64.52;101981.34;4923776;29;20396;-47
2023/05/17 07:55:46;;;;;;;12.55;2.55;;;;;;;9.64;64.53;101978.63;4924107;29;20218;-49
2023/05/17 07:58:12;;;;;;;13.48;2.20;;;;;;;9.45;64.56;101999.44;4923835;29;20233;-52
2023/05/17 08:00:37;;;;;;;15.07;2.88;;;;;;;9.77;64.07;101990.88;4923388;29;20190;-47
2023/05/17 08:03:03;;;;;;;10.40;2.03;;;;;;;9.78;64.41;101990.00;4921706;29;20212;-49
2023/05/17 08:05:29;;;;;;;9.23;2.15;;;;;;;9.67;64.83;101997.31;4927353;29;20266;-49
2023/05/17 08:07:54;;;;;;;8.02;1.90;;;;;;;9.60;64.55;101996.53;4922620;29;20230;-53
2023/05/17 08:10:20;;;;;;;11.20;2.10;;;;;;;9.38;64.56;102011.13;4923559;29;20188;-52
2023/05/17 08:12:45;;;;;;;11.20;2.30;;;;;;;9.62;64.73;102029.50;4924016;29;20191;-48
2023/05/17 08:15:11;;;;;;;6.78;2.17;;;;;;;9.23;64.94;102028.28;4921985;29;20187;-51
2023/05/17 08:17:36;;;;;;;9.63;2.05;;;;;;;9.44;65.58;102035.97;4918466;29;20188;-50
2023/05/17 08:20:04;;;;;;;6.22;1.55;;;;;;;9.12;65.67;102044.47;4921261;29;20675;-49
2023/05/17 08:22:30;;;;;;;5.20;1.88;;;;;;;9.12;65.18;102038.22;4922403;29;20195;-52
2023/05/17 08:24:56;;;;;;;5.68;1.60;;;;;;;9.89;64.37;102028.19;4926121;29;20254;-47
2023/05/17 08:27:21;;;;;;;10.07;2.70;;;;;;;10.32;62.67;102010.53;4921323;29;20715;-49
2023/05/17 08:29:47;;;;;;;11.43;2.35;;;;;;;10.41;62.13;102002.31;4921025;29;20263;-52
2023/05/17 08:32:12;;;;;;;11.85;2.40;;;;;;;10.06;62.79;102019.88;4918689;29;20199;-49
2023/05/17 08:34:38;;;;;;;11.13;2.30;;;;;;;9.95;63.93;102021.84;4928757;29;20262;-51
2023/05/17 08:37:04;;;;;;;9.43;1.90;;;;;;;9.97;63.54;102043.22;4922133;29;20195;-48
2023/05/17 08:39:30;;;;;;;12.23;2.10;;;;;;;9.54;63.57;102030.53;4941318;29;20191;-51
2023/05/17 08:42:00;;;;;;;12.05;2.47;;;;;;;9.37;63.98;102039.66;4937993;29;20254;-48
2023/05/17 08:44:29;;;;;;;13.25;2.40;;;;;;;9.26;64.96;102054.97;4922261;29;20211;-48
2023/05/17 08:46:55;;;;;;;7.32;2.22;;;;;;;10.02;65.27;102074.38;4924016;29;20198;-48
2023/05/17 08:49:24;;;;;;;12.68;2.55;;;;;;;9.90;64.29;102070.13;4925219;29;20242;-47
2023/05/17 08:51:56;;;;;;;11.02;2.03;;;;;;;9.68;63.46;102048.13;4926418;29;20252;-51
2023/05/17 08:54:22;;;;;;;10.90;2.00;;;;;;;9.64;63.17;102057.13;4920557;29;20219;-52
2023/05/17 08:56:51;;;;;;;10.25;2.15;;;;;;;9.96;62.84;102053.06;4924969;29;20183;-47
2023/05/17 08:59:20;;;;;;;10.63;2.58;;;;;;;10.11;62.07;102039.41;4921658;29;20274;-49
2023/05/17 09:01:50;;;;;;;6.68;1.90;;;;;;;10.68;61.46;102050.94;4920660;29;20191;-47
2023/05/17 09:04:16;;;;;;;9.07;1.60;;;;;;;10.91;60.76;102046.03;4919273;29;20210;-51
2023/05/17 09:06:44;;;;;;;8.05;2.22;;;;;;;10.89;61.54;102055.03;4920130;29;20218;-48
2023/05/17 09:09:10;;;;;;;9.55;2.13;;;;;;;10.48;61.32;102059.38;4923274;29;20283;-48
2023/05/17 09:11:36;;;;;;;9.65;1.80;;;;;;;10.26;61.69;102059.69;4920609;29;20327;-47
2023/05/17 09:14:03;;;;;;;11.32;3.83;;;;;;;10.95;61.44;102052.19;4922831;29;20200;-48
2023/05/17 09:16:30;;;;;;;9.80;1.85;;;;;;;10.79;60.53;102059.66;4911364;29;20190;-52
2023/05/17 09:18:57;;;;;;;9.07;2.15;;;;;;;11.28;60.91;102053.31;4918797;29;20196;-48
2023/05/17 09:21:24;;;;;;;9.27;1.95;;;;;;;10.91;60.35;102055.84;4920444;29;20196;-47
2023/05/17 09:23:53;;;;;;;5.82;1.75;;;;;;;10.83;59.90;102058.69;4922065;29;20691;-48
2023/05/17 09:26:20;;;;;;;10.52;1.85;;;;;;;10.62;60.33;102062.66;4922795;29;20203;-49
2023/05/17 09:28:47;;;;;;;9.02;2.20;;;;;;;10.50;60.01;102061.09;4925181;29;20192;-48
2023/05/17 09:31:15;;;;;;;8.88;1.88;;;;;;;11.00;59.53;102054.78;4916417;29;20215;-47
2023/05/17 09:33:49;;;;;;;9.13;1.80;;;;;;;11.63;59.47;102072.22;4920156;29;20239;-47
2023/05/17 09:36:19;;;;;;;12.15;2.65;;;;;;;11.44;59.31;102066.41;4925378;29;20240;-48
2023/05/17 09:38:57;;;;;;;6.40;1.65;;;;;;;11.44;58.48;102061.91;4923953;29;20199;-47
2023/05/17 09:41:26;;;;;;;9.80;1.90;;;;;;;10.74;59.39;102064.25;4920664;29;20196;-50
2023/05/17 09:43:51;;;;;;;7.82;1.77;;;;;;;10.83;60.93;102081.94;4920943;29;20477;-48
2023/05/17 09:46:19;;;;;;;5.93;1.55;;;;;;;11.44;60.71;102088.75;4923034;29;20195;-45
2023/05/17 09:48:45;;;;;;;8.52;2.10;;;;;;;11.02;61.22;102094.09;4922585;29;20547;-47
2023/05/17 09:51:11;;;;;;;6.32;1.70;;;;;;;10.69;61.52;102093.81;4920454;29;20199;-47
2023/05/17 09:53:40;;;;;;;11.60;2.00;;;;;;;11.04;62.10;102112.81;4925254;29;20195;-49
2023/05/17 09:56:06;;;;;;;9.02;2.10;;;;;;;11.03;61.75;102108.38;4924811;29;20183;-47
2023/05/17 09:58:35;;;;;;;4.97;1.60;;;;;;;11.16;60.35;102084.88;4923845;29;20171;-49
2023/05/17 10:01:06;;;;;;;6.72;1.63;;;;;;;11.69;60.35;102082.81;4919074;29;20188;-52
2023/05/17 10:03:35;;;;;;;8.50;1.50;;;;;;;11.36;60.06;102093.38;4917635;29;20231;-49
2023/05/17 10:06:05;;;;;;;8.27;1.50;;;;;;;11.66;59.23;102085.59;4924941;29;20205;-48
2023/05/17 10:08:32;;;;;;;4.35;1.50;;;;;;;11.79;58.75;102070.97;4923812;29;20190;-47
2023/05/17 10:11:04;;;;;;;10.02;2.03;;;;;;;11.44;59.59;102072.63;4921616;29;20315;-48
2023/05/17 10:13:36;;;;;;;7.95;2.22;;;;;;;11.29;59.68;102094.44;4924748;29;20683;-50
2023/05/17 10:16:02;;;;;;;5.53;1.60;;;;;;;11.59;59.56;102078.56;4924976;29;20191;-49
2023/05/17 10:18:29;;;;;;;6.22;1.85;;;;;;;11.65;60.09;102091.84;4924433;29;20187;-50
2023/05/17 10:20:55;;;;;;;5.90;1.60;;;;;;;11.57;60.19;102089.34;4922606;29;20274;-44
2023/05/17 10:23:22;;;;;;;8.25;1.52;;;;;;;11.23;60.26;102078.47;4922540;29;20228;-53
2023/05/17 10:25:48;;;;;;;12.77;1.80;;;;;;;11.00;61.13;102116.47;4926724;29;20206;-48
2023/05/17 10:28:16;;;;;;;7.45;1.83;;;;;;;10.88;61.55;102117.59;4924350;29;20188;-50
2023/05/17 10:30:42;;;;;;;8.00;1.80;;;;;;;10.88;61.65;102114.91;4920090;29;20271;-51
2023/05/17 10:33:10;;;;;;;9.43;2.05;;;;;;;11.24;61.60;102118.69;4934135;29;20215;-50
2023/05/17 10:35:37;;;;;;;8.95;2.10;;;;;;;11.16;62.51;102131.34;4923286;29;20187;-50
2023/05/17 10:38:02;;;;;;;9.90;1.95;;;;;;;11.39;62.91;102141.63;4922645;29;20544;-49
2023/05/17 10:40:30;;;;;;;8.60;1.60;;;;;;;11.31;62.54;102139.09;4925141;29;20238;-49
2023/05/17 10:42:57;;;;;;;8.40;1.58;;;;;;;12.08;61.26;102144.63;4923327;29;20322;-45
2023/05/17 10:45:24;;;;;;;7.97;1.65;;;;;;;11.86;59.96;102115.53;4923634;29;20192;-48
2023/05/17 10:47:53;;;;;;;10.38;2.00;;;;;;;12.13;59.85;102121.22;4920860;29;20183;-47
2023/05/17 10:50:24;;;;;;;5.82;1.90;;;;;;;11.70;59.61;102111.44;4925882;29;20650;-50
2023/05/17 10:52:50;;;;;;;8.32;1.95;;;;;;;11.66;58.87;102117.81;4928273;29;20176;-48
2023/05/17 10:55:40;;;;;;;5.03;1.30;;;;;;;11.89;58.21;102101.19;4926505;29;20231;-48
2023/05/17 10:58:26;;;;;;;7.57;1.45;;;;;;;12.16;58.13;102113.97;4929935;29;20195;-51
2023/05/17 11:00:53;;;;;;;8.75;2.05;;;;;;;12.18;57.13;102100.50;4927393;29;20651;-49
2023/05/17 11:03:28;;;;;;;7.63;1.45;;;;;;;12.95;57.13;102098.50;4955256;28;20212;-47
2023/05/17 11:06:23;;;;;;;7.75;1.77;;;;;;;13.06;56.97;102103.59;4925216;29;20293;-47
2023/05/17 11:09:06;;;;;;;6.47;1.63;;;;;;;12.63;56.25;102077.84;4927489;29;20624;-47
2023/05/17 11:11:33;;;;;;;5.28;1.60;;;;;;;12.25;57.27;102094.06;4925373;29;20183;-48
2023/05/17 11:14:03;;;;;;;3.65;1.23;;;;;;;11.91;58.51;102092.16;4923707;29;20212;-47
2023/05/17 11:16:36;;;;;;;6.30;1.50;;;;;;;12.11;58.21;102097.09;4918997;29;20180;-49
2023/05/17 11:19:10;;;;;;;8.32;1.75;;;;;;;12.34;57.43;102093.81;4923627;29;20187;-46
2023/05/17 11:21:45;;;;;;;7.55;1.80;;;;;;;13.00;57.84;102115.38;4922662;29;20643;-49
2023/05/17 11:24:18;;;;;;;7.78;1.90;;;;;;;12.25;58.98;102125.44;4923113;29;20211;-49
2023/05/17 11:26:44;;;;;;;6.65;1.60;;;;;;;12.62;57.60;102109.25;4924652;29;20259;-55